South Range, Wisconsin
Current Conditions -  °F | °C
As of 1:15 PM on Friday 28 Nov 2014 (Local Time) from KSUW Reporting Station
Light Snow Light Snow  
Wind Chill: 16°   Ceiling: 5000
Heat Index: 16°   Visibility: 5mi
Dew Point: 10°   Wind: 0mph
Humidity: 77%   Direction: NA
Pressure: 29.96"   Gusts: NA
Location:  46.61°N, 91.98°W
Report Text: KSUW 281915Z AUTO 00000KT 5SM -SN SCT016 OVC050 M09/M12 A2996 RMK AO2 T10871120
Loading
Personal Weather Stations






























Interactive Weather Map New forecast layout! Learn more

10-Day Weather Forecast

Advertisements
Track Severe Weather on mobile